createdAt,value
2023-12-14T00:00:02.812Z,7
2023-12-14T00:01:02.397Z,7
2023-12-14T00:02:02.717Z,7
2023-12-14T00:03:02.374Z,7
2023-12-14T00:04:02.385Z,7
2023-12-14T00:05:02.628Z,5
2023-12-14T00:06:02.379Z,5
2023-12-14T00:07:02.163Z,9
2023-12-14T00:08:02.270Z,9
2023-12-14T00:09:02.190Z,5
2023-12-14T00:10:02.961Z,5
2023-12-14T00:11:02.429Z,9
2023-12-14T00:12:02.505Z,9
2023-12-14T00:13:02.344Z,11
2023-12-14T00:15:02.970Z,7
2023-12-14T00:16:02.555Z,7
2023-12-14T00:17:02.065Z,9
2023-12-14T00:18:02.736Z,9
2023-12-14T00:19:02.697Z,4
2023-12-14T00:20:03.207Z,4
2023-12-14T00:21:02.359Z,5
2023-12-14T00:22:02.309Z,5
2023-12-14T00:23:02.757Z,5
2023-12-14T00:24:02.995Z,4
2023-12-14T00:25:02.565Z,5
2023-12-14T00:26:02.522Z,5
2023-12-14T00:27:02.222Z,7
2023-12-14T00:28:01.883Z,7
2023-12-14T00:29:02.911Z,7
2023-12-14T00:30:02.087Z,7
2023-12-14T00:32:02.326Z,4
2023-12-14T00:33:03.026Z,5
2023-12-14T00:34:02.626Z,5
2023-12-14T00:35:02.270Z,7
2023-12-14T00:36:02.837Z,7
2023-12-14T00:37:02.090Z,5
2023-12-14T00:38:02.313Z,5
2023-12-14T00:39:02.669Z,2
2023-12-14T00:40:02.512Z,2
2023-12-14T00:41:02.384Z,5
2023-12-14T00:42:02.389Z,5
2023-12-14T00:43:07.384Z,2
2023-12-14T00:44:03.439Z,2
2023-12-14T00:45:02.486Z,4
2023-12-14T00:47:02.113Z,5
2023-12-14T00:48:02.996Z,5
2023-12-14T00:49:03.042Z,5
2023-12-14T00:50:02.763Z,5
2023-12-14T00:51:01.918Z,5
2023-12-14T00:52:02.866Z,5
2023-12-14T00:53:01.822Z,5
2023-12-14T00:54:02.965Z,5
2023-12-14T00:55:02.426Z,2
2023-12-14T00:57:02.020Z,4
2023-12-14T00:58:02.668Z,4
2023-12-14T00:59:02.096Z,2
2023-12-14T01:00:02.643Z,2
2023-12-14T01:01:02.461Z,4
2023-12-14T01:02:02.538Z,4
2023-12-14T01:03:02.044Z,4
2023-12-14T01:04:02.743Z,5
2023-12-14T01:05:03.516Z,5
2023-12-14T01:06:01.926Z,5
2023-12-14T01:07:02.623Z,7
2023-12-14T01:08:02.423Z,7
2023-12-14T01:09:02.316Z,4
2023-12-14T01:10:02.097Z,4
2023-12-14T01:11:02.340Z,2
2023-12-14T01:12:02.254Z,2
2023-12-14T01:13:02.433Z,4
2023-12-14T01:14:02.614Z,4
2023-12-14T01:15:02.701Z,4
2023-12-14T01:16:02.478Z,4
2023-12-14T01:17:02.664Z,5
2023-12-14T01:18:02.103Z,5
2023-12-14T01:19:02.435Z,4
2023-12-14T01:20:02.789Z,4
2023-12-14T01:23:02.227Z,5
2023-12-14T01:24:02.898Z,5
2023-12-14T01:25:02.157Z,5
2023-12-14T01:26:02.998Z,5
2023-12-14T01:27:02.652Z,2
2023-12-14T01:28:02.453Z,2
2023-12-14T01:29:02.308Z,4
2023-12-14T01:30:02.380Z,4
2023-12-14T01:31:02.414Z,4
2023-12-14T01:32:02.872Z,4
2023-12-14T01:33:02.808Z,0
2023-12-14T01:34:02.672Z,0
2023-12-14T01:35:02.910Z,4
2023-12-14T01:36:02.697Z,4
2023-12-14T01:37:02.517Z,2
2023-12-14T01:38:02.653Z,2
2023-12-14T01:39:02.079Z,2
2023-12-14T01:40:02.630Z,2
2023-12-14T01:41:02.421Z,2
2023-12-14T01:42:02.707Z,2
2023-12-14T01:43:02.358Z,2
2023-12-14T01:44:02.357Z,2
2023-12-14T01:45:02.680Z,2
2023-12-14T01:47:02.117Z,2
2023-12-14T01:48:02.968Z,2
2023-12-14T01:49:02.974Z,2
2023-12-14T01:50:02.811Z,2
2023-12-14T01:51:02.501Z,0
2023-12-14T01:52:02.182Z,0
2023-12-14T01:53:02.921Z,0
2023-12-14T01:54:01.767Z,0
2023-12-14T01:55:02.155Z,0
2023-12-14T01:56:01.892Z,0
2023-12-14T01:57:02.108Z,0
2023-12-14T01:58:02.385Z,0
2023-12-14T01:59:02.120Z,4
2023-12-14T02:00:02.303Z,4
2023-12-14T02:02:02.605Z,2
2023-12-14T02:03:02.035Z,0
2023-12-14T02:04:02.342Z,0
2023-12-14T02:05:02.567Z,2
2023-12-14T02:06:02.800Z,2
2023-12-14T02:07:02.633Z,2
2023-12-14T02:08:02.320Z,2
2023-12-14T02:10:02.408Z,0
2023-12-14T02:12:02.543Z,2
2023-12-14T02:13:02.217Z,2
2023-12-14T02:14:02.987Z,2
2023-12-14T02:15:02.027Z,0
2023-12-14T02:16:02.797Z,0
2023-12-14T02:17:02.766Z,2
2023-12-14T02:18:02.413Z,2
2023-12-14T02:19:02.188Z,2
2023-12-14T02:20:02.325Z,2
2023-12-14T02:21:02.790Z,0
2023-12-14T02:22:02.420Z,0
2023-12-14T02:23:02.336Z,0
2023-12-14T02:25:02.416Z,2
2023-12-14T02:26:02.156Z,2
2023-12-14T02:27:04.050Z,0
2023-12-14T02:28:02.445Z,0
2023-12-14T02:29:02.516Z,2
2023-12-14T02:30:02.416Z,2
2023-12-14T02:31:02.533Z,0
2023-12-14T02:32:02.506Z,0
2023-12-14T02:33:02.637Z,0
2023-12-14T02:34:02.700Z,0
2023-12-14T02:35:02.289Z,2
2023-12-14T02:36:02.588Z,2
2023-12-14T02:37:02.642Z,2
2023-12-14T02:38:02.351Z,2
2023-12-14T02:39:02.230Z,2
2023-12-14T02:40:02.899Z,2
2023-12-14T02:41:02.635Z,2
2023-12-14T02:42:02.615Z,2
2023-12-14T02:43:03.871Z,0
2023-12-14T02:44:03.069Z,0
2023-12-14T02:45:01.996Z,0
2023-12-14T02:46:02.894Z,0
2023-12-14T02:47:02.830Z,0
2023-12-14T02:48:02.394Z,0
2023-12-14T02:49:01.970Z,2
2023-12-14T02:50:02.089Z,2
2023-12-14T02:51:02.341Z,0
2023-12-14T02:52:02.582Z,0
2023-12-14T02:53:02.026Z,0
2023-12-14T02:54:02.711Z,0
2023-12-14T02:55:02.358Z,0
2023-12-14T02:56:03.084Z,0
2023-12-14T02:57:02.391Z,0
2023-12-14T02:59:02.080Z,2
2023-12-14T03:00:02.460Z,2
2023-12-14T03:01:01.719Z,0
2023-12-14T03:02:02.307Z,0
2023-12-14T03:03:02.089Z,0
2023-12-14T03:04:02.494Z,0
2023-12-14T03:05:02.492Z,0
2023-12-14T03:06:01.960Z,0
2023-12-14T03:07:02.632Z,0
2023-12-14T03:08:02.983Z,0
2023-12-14T03:09:01.892Z,2
2023-12-14T03:10:02.552Z,2
2023-12-14T03:11:03.047Z,2
2023-12-14T03:12:02.097Z,2
2023-12-14T03:13:02.648Z,4
2023-12-14T03:14:02.838Z,4
2023-12-14T03:15:02.497Z,2
2023-12-14T03:16:02.514Z,2
2023-12-14T03:17:02.468Z,2
2023-12-14T03:18:02.320Z,2
2023-12-14T03:19:02.689Z,4
2023-12-14T03:20:02.341Z,4
2023-12-14T03:21:02.788Z,2
2023-12-14T03:22:02.234Z,2
2023-12-14T03:23:01.937Z,2
2023-12-14T03:24:02.308Z,2
2023-12-14T03:25:02.463Z,2
2023-12-14T03:26:02.397Z,2
2023-12-14T03:27:02.425Z,2
2023-12-14T03:28:02.281Z,2
2023-12-14T03:29:02.273Z,2
2023-12-14T03:30:02.115Z,2
2023-12-14T03:31:02.157Z,2
2023-12-14T03:32:02.295Z,2
2023-12-14T03:33:02.917Z,2
2023-12-14T03:34:02.199Z,2
2023-12-14T03:35:02.339Z,2
2023-12-14T03:36:02.182Z,2
2023-12-14T03:37:02.066Z,4
2023-12-14T03:38:02.726Z,4
2023-12-14T03:39:02.956Z,2
2023-12-14T03:40:02.838Z,2
2023-12-14T03:41:02.710Z,4
2023-12-14T03:42:02.331Z,4
2023-12-14T03:43:02.685Z,4
2023-12-14T03:44:02.336Z,4
2023-12-14T03:45:02.094Z,2
2023-12-14T03:46:02.445Z,2
2023-12-14T03:48:01.894Z,5
2023-12-14T03:49:02.341Z,4
2023-12-14T03:50:01.991Z,4
2023-12-14T03:51:02.894Z,2
2023-12-14T03:52:02.644Z,2
2023-12-14T03:53:02.201Z,2
2023-12-14T03:54:02.826Z,2
2023-12-14T03:55:02.687Z,4
2023-12-14T03:56:01.896Z,4
2023-12-14T03:57:02.510Z,2
2023-12-14T03:58:01.777Z,2
2023-12-14T03:59:02.857Z,2
2023-12-14T04:00:01.919Z,2
2023-12-14T04:01:02.166Z,2
2023-12-14T04:02:02.729Z,2
2023-12-14T04:03:02.818Z,4
2023-12-14T04:04:01.858Z,4
2023-12-14T04:05:02.155Z,2
2023-12-14T04:06:02.344Z,2
2023-12-14T04:07:02.718Z,2
2023-12-14T04:08:02.086Z,2
2023-12-14T04:09:02.055Z,2
2023-12-14T04:10:02.004Z,2
2023-12-14T04:11:02.016Z,4
2023-12-14T04:12:02.102Z,4
2023-12-14T04:13:02.184Z,2
2023-12-14T04:14:02.167Z,2
2023-12-14T04:15:02.382Z,2
2023-12-14T04:16:02.120Z,2
2023-12-14T04:17:02.498Z,2
2023-12-14T04:18:02.513Z,2
2023-12-14T04:19:02.524Z,4
2023-12-14T04:20:02.068Z,4
2023-12-14T04:21:02.522Z,2
2023-12-14T04:22:02.770Z,2
2023-12-14T04:23:02.202Z,4
2023-12-14T04:24:02.644Z,4
2023-12-14T04:25:01.985Z,2
2023-12-14T04:26:03.118Z,2
2023-12-14T04:27:02.354Z,4
2023-12-14T04:28:02.838Z,4
2023-12-14T04:30:02.393Z,4
2023-12-14T04:31:01.798Z,4
2023-12-14T04:32:02.002Z,4
2023-12-14T04:33:02.909Z,2
2023-12-14T04:34:02.320Z,2
2023-12-14T04:35:02.835Z,2
2023-12-14T04:36:02.767Z,2
2023-12-14T04:37:02.861Z,2
2023-12-14T04:38:03.165Z,2
2023-12-14T04:39:02.760Z,2
2023-12-14T04:40:01.986Z,2
2023-12-14T04:41:02.812Z,4
2023-12-14T04:43:02.867Z,2
2023-12-14T04:44:02.071Z,2
2023-12-14T04:45:02.676Z,2
2023-12-14T04:46:02.901Z,2
2023-12-14T04:48:02.384Z,2
2023-12-14T04:49:02.540Z,4
2023-12-14T04:50:02.612Z,4
2023-12-14T04:51:02.611Z,2
2023-12-14T04:52:02.043Z,2
2023-12-14T04:53:02.264Z,2
2023-12-14T04:55:02.322Z,4
2023-12-14T04:56:02.079Z,4
2023-12-14T04:57:02.159Z,2
2023-12-14T04:58:01.983Z,2
2023-12-14T04:59:02.163Z,2
2023-12-14T05:00:01.748Z,2
2023-12-14T05:01:02.539Z,4
2023-12-14T05:02:02.488Z,4
2023-12-14T05:03:02.112Z,4
2023-12-14T05:04:02.679Z,4
2023-12-14T05:05:02.003Z,4
2023-12-14T05:06:02.046Z,4
2023-12-14T05:07:02.172Z,2
2023-12-14T05:08:02.618Z,2
2023-12-14T05:09:02.815Z,2
2023-12-14T05:11:02.262Z,2
2023-12-14T05:12:02.519Z,2
2023-12-14T05:13:02.375Z,4
2023-12-14T05:14:02.309Z,4
2023-12-14T05:15:02.070Z,5
2023-12-14T05:16:02.054Z,5
2023-12-14T05:17:02.184Z,4
2023-12-14T05:18:02.369Z,4
2023-12-14T05:20:02.128Z,2
2023-12-14T05:22:02.555Z,2
2023-12-14T05:24:03.015Z,4
2023-12-14T05:25:02.651Z,2
2023-12-14T05:26:02.134Z,2
2023-12-14T05:27:02.873Z,2
2023-12-14T05:28:02.137Z,2
2023-12-14T05:29:02.619Z,4
2023-12-14T05:30:02.466Z,4
2023-12-14T05:31:02.963Z,4
2023-12-14T05:32:02.661Z,4
2023-12-14T05:33:02.180Z,2
2023-12-14T05:34:02.024Z,2
2023-12-14T05:35:02.118Z,2
2023-12-14T05:36:02.749Z,2
2023-12-14T05:37:02.589Z,4
2023-12-14T05:38:02.433Z,4
2023-12-14T05:39:02.907Z,2
2023-12-14T05:41:02.904Z,2
2023-12-14T05:42:02.537Z,2
2023-12-14T05:43:02.149Z,2
2023-12-14T05:44:02.185Z,2
2023-12-14T05:45:02.134Z,4
2023-12-14T05:46:01.994Z,4
2023-12-14T05:47:02.304Z,4
2023-12-14T05:48:02.677Z,4
2023-12-14T05:49:03.087Z,4
2023-12-14T05:50:02.176Z,4
2023-12-14T05:51:02.312Z,2
2023-12-14T05:52:02.949Z,2
2023-12-14T05:53:02.219Z,4
2023-12-14T05:54:02.513Z,4
2023-12-14T05:55:04.921Z,2
2023-12-14T05:56:02.741Z,2
2023-12-14T05:57:02.209Z,2
2023-12-14T05:58:02.442Z,2
2023-12-14T05:59:02.059Z,4
2023-12-14T06:00:02.418Z,4
2023-12-14T06:01:02.206Z,4
2023-12-14T06:02:02.440Z,4
2023-12-14T06:03:02.057Z,4
2023-12-14T06:04:02.779Z,4
2023-12-14T06:05:02.134Z,4
2023-12-14T06:06:02.880Z,4
2023-12-14T06:07:02.246Z,4
2023-12-14T06:08:02.147Z,4
2023-12-14T06:09:02.121Z,4
2023-12-14T06:10:02.678Z,4
2023-12-14T06:11:02.069Z,4
2023-12-14T06:12:02.108Z,4
2023-12-14T06:13:02.587Z,4
2023-12-14T06:14:02.526Z,4
2023-12-14T06:15:02.595Z,4
2023-12-14T06:16:02.716Z,4
2023-12-14T06:17:02.632Z,2
2023-12-14T06:18:03.032Z,2
2023-12-14T06:19:02.800Z,2
2023-12-14T06:20:02.494Z,2
2023-12-14T06:22:02.587Z,4
2023-12-14T06:23:02.530Z,4
2023-12-14T06:24:02.993Z,4
2023-12-14T06:25:02.317Z,2
2023-12-14T06:26:02.992Z,2
2023-12-14T06:27:03.009Z,5
2023-12-14T06:28:02.529Z,5
2023-12-14T06:29:01.812Z,4
2023-12-14T06:30:02.072Z,4
2023-12-14T06:31:01.788Z,5
2023-12-14T06:32:02.866Z,5
2023-12-14T06:33:02.474Z,4
2023-12-14T06:34:02.801Z,4
2023-12-14T06:35:01.772Z,2
2023-12-14T06:36:02.287Z,2
2023-12-14T06:37:02.467Z,4
2023-12-14T06:38:02.981Z,4
2023-12-14T06:39:07.929Z,4
2023-12-14T06:40:02.847Z,4
2023-12-14T06:41:03.003Z,4
2023-12-14T06:42:01.996Z,4
2023-12-14T06:43:02.069Z,4
2023-12-14T06:44:02.291Z,4
2023-12-14T06:45:02.411Z,4
2023-12-14T06:46:03.066Z,4
2023-12-14T06:47:02.408Z,2
2023-12-14T06:49:02.931Z,2
2023-12-14T06:50:02.078Z,2
2023-12-14T06:51:02.695Z,2
2023-12-14T06:52:02.126Z,2
2023-12-14T06:53:01.939Z,4
2023-12-14T06:54:02.835Z,4
2023-12-14T06:55:02.320Z,2
2023-12-14T06:56:02.711Z,2
2023-12-14T06:57:02.154Z,4
2023-12-14T06:58:02.700Z,4
2023-12-14T06:59:02.570Z,2
2023-12-14T07:00:02.667Z,2
2023-12-14T07:01:01.895Z,4
2023-12-14T07:03:02.465Z,4
2023-12-14T07:04:02.225Z,4
2023-12-14T07:05:02.212Z,5
2023-12-14T07:06:02.853Z,5
2023-12-14T07:07:02.617Z,2
2023-12-14T07:08:02.226Z,2
2023-12-14T07:09:02.725Z,2
2023-12-14T07:10:02.605Z,2
2023-12-14T07:11:02.408Z,4
2023-12-14T07:12:03.055Z,4
2023-12-14T07:13:02.076Z,2
2023-12-14T07:14:02.304Z,2
2023-12-14T07:15:02.349Z,4
2023-12-14T07:16:02.010Z,4
2023-12-14T07:17:02.175Z,4
2023-12-14T07:19:02.607Z,5
2023-12-14T07:20:02.586Z,5
2023-12-14T07:21:01.931Z,2
2023-12-14T07:22:02.192Z,2
2023-12-14T07:23:02.570Z,4
2023-12-14T07:24:02.108Z,4
2023-12-14T07:25:01.717Z,5
2023-12-14T07:26:03.048Z,5
2023-12-14T07:27:02.265Z,4
2023-12-14T07:28:02.752Z,4
2023-12-14T07:29:02.684Z,4
2023-12-14T07:30:03.066Z,4
2023-12-14T07:31:02.270Z,4
2023-12-14T07:32:03.342Z,4
2023-12-14T07:33:02.366Z,5
2023-12-14T07:34:02.296Z,5
2023-12-14T07:36:02.570Z,4
2023-12-14T07:38:01.960Z,4
2023-12-14T07:39:02.701Z,5
2023-12-14T07:40:02.386Z,5
2023-12-14T07:41:02.467Z,5
2023-12-14T07:42:01.978Z,5
2023-12-14T07:43:01.926Z,4
2023-12-14T07:44:05.503Z,4
2023-12-14T07:45:01.871Z,4
2023-12-14T07:46:02.014Z,5
2023-12-14T07:47:02.956Z,4
2023-12-14T07:48:02.697Z,4
2023-12-14T07:49:02.178Z,4
2023-12-14T07:50:02.900Z,4
2023-12-14T07:52:02.475Z,4
2023-12-14T07:53:02.519Z,5
2023-12-14T07:54:02.112Z,5
2023-12-14T07:56:02.022Z,4
2023-12-14T07:57:02.117Z,5
2023-12-14T07:58:08.115Z,5
2023-12-14T07:59:02.288Z,2
2023-12-14T08:00:02.095Z,2
2023-12-14T08:01:02.024Z,2
2023-12-14T08:02:02.265Z,2
2023-12-14T08:03:02.864Z,4
2023-12-14T08:04:02.163Z,4
2023-12-14T08:05:02.461Z,2
2023-12-14T08:06:02.024Z,2
2023-12-14T08:08:02.652Z,2
2023-12-14T08:09:02.753Z,2
2023-12-14T08:10:02.681Z,2
2023-12-14T08:13:02.669Z,4
2023-12-14T08:14:02.422Z,4
2023-12-14T08:15:02.578Z,4
2023-12-14T08:16:02.559Z,4
2023-12-14T08:17:02.554Z,7
2023-12-14T08:18:02.910Z,7
2023-12-14T08:19:02.718Z,4
2023-12-14T08:20:02.311Z,4
2023-12-14T08:21:02.607Z,4
2023-12-14T08:22:02.255Z,4
2023-12-14T08:23:02.682Z,2
2023-12-14T08:24:02.451Z,2
2023-12-14T08:25:02.267Z,5
2023-12-14T08:26:03.239Z,5
2023-12-14T08:27:02.667Z,5
2023-12-14T08:28:04.952Z,5
2023-12-14T08:29:02.858Z,2
2023-12-14T08:30:02.254Z,2
2023-12-14T08:31:02.227Z,5
2023-12-14T08:32:02.792Z,5
2023-12-14T08:33:02.207Z,4
2023-12-14T08:34:02.605Z,4
2023-12-14T08:35:03.162Z,4
2023-12-14T08:36:01.798Z,4
2023-12-14T08:37:02.730Z,5
2023-12-14T08:38:02.778Z,5
2023-12-14T08:39:02.053Z,5
2023-12-14T08:40:02.108Z,5
2023-12-14T08:41:02.248Z,4
2023-12-14T08:42:02.609Z,4
2023-12-14T08:43:01.912Z,4
2023-12-14T08:44:02.829Z,4
2023-12-14T08:45:02.579Z,4
2023-12-14T08:46:02.733Z,4
2023-12-14T08:47:02.879Z,5
2023-12-14T08:49:02.225Z,5
2023-12-14T08:50:02.790Z,5
2023-12-14T08:51:02.619Z,5
2023-12-14T08:52:02.650Z,5
2023-12-14T08:53:02.119Z,4
2023-12-14T08:54:02.521Z,4
2023-12-14T08:55:02.143Z,2
2023-12-14T08:56:02.762Z,2
2023-12-14T08:57:02.834Z,2
2023-12-14T08:58:02.248Z,2
2023-12-14T08:59:02.694Z,4
2023-12-14T09:00:02.280Z,4
2023-12-14T09:01:01.950Z,2
2023-12-14T09:03:02.168Z,4
2023-12-14T09:04:02.449Z,4
2023-12-14T09:05:02.925Z,5
2023-12-14T09:06:03.215Z,5
2023-12-14T09:07:02.459Z,5
2023-12-14T09:08:02.636Z,5
2023-12-14T09:09:02.418Z,2
2023-12-14T09:10:02.759Z,2
2023-12-14T09:11:01.993Z,4
2023-12-14T09:12:02.648Z,4
2023-12-14T09:13:02.537Z,2
2023-12-14T09:14:02.146Z,2
2023-12-14T09:15:02.007Z,4
2023-12-14T09:16:02.445Z,4
2023-12-14T09:17:02.736Z,2
2023-12-14T09:18:02.572Z,2
2023-12-14T09:19:02.740Z,5
2023-12-14T09:20:02.255Z,5
2023-12-14T09:21:01.955Z,4
2023-12-14T09:22:02.857Z,4
2023-12-14T09:23:02.576Z,4
2023-12-14T09:24:02.219Z,4
2023-12-14T09:25:02.229Z,5
2023-12-14T09:26:02.803Z,5
2023-12-14T09:28:02.066Z,4
2023-12-14T09:29:01.916Z,4
2023-12-14T09:30:02.305Z,4
2023-12-14T09:31:03.034Z,5
2023-12-14T09:32:02.818Z,5
2023-12-14T09:33:02.336Z,4
2023-12-14T09:34:02.698Z,4
2023-12-14T09:35:02.256Z,4
2023-12-14T09:36:02.500Z,4
2023-12-14T09:37:02.176Z,5
2023-12-14T09:38:02.347Z,5
2023-12-14T09:39:02.466Z,4
2023-12-14T09:40:02.311Z,4
2023-12-14T09:41:02.582Z,4
2023-12-14T09:42:02.292Z,4
2023-12-14T09:43:03.442Z,5
2023-12-14T09:44:02.426Z,5
2023-12-14T09:45:02.604Z,5
2023-12-14T09:46:02.569Z,5
2023-12-14T09:47:02.361Z,5
2023-12-14T09:48:02.607Z,5
2023-12-14T09:49:03.975Z,5
2023-12-14T09:50:02.438Z,5
2023-12-14T09:51:02.477Z,7
2023-12-14T09:52:02.593Z,7
2023-12-14T09:53:02.752Z,7
2023-12-14T09:54:02.989Z,7
2023-12-14T09:55:02.499Z,5
2023-12-14T09:56:02.304Z,5
2023-12-14T09:57:02.597Z,4
2023-12-14T09:58:02.581Z,4
2023-12-14T09:59:02.170Z,5
2023-12-14T10:00:03.321Z,5
2023-12-14T10:01:02.179Z,7
2023-12-14T10:02:02.331Z,7
2023-12-14T10:03:01.835Z,5
2023-12-14T10:04:02.812Z,5
2023-12-14T10:05:02.491Z,7
2023-12-14T10:09:02.016Z,7
2023-12-14T10:10:02.110Z,7
2023-12-14T10:12:02.222Z,5
2023-12-14T10:13:01.954Z,7
2023-12-14T10:14:02.486Z,7
2023-12-14T10:15:02.345Z,5
2023-12-14T10:16:01.998Z,5
2023-12-14T10:17:03.868Z,9
2023-12-14T10:18:02.532Z,9
2023-12-14T10:19:02.718Z,4
2023-12-14T10:20:02.799Z,4
2023-12-14T10:21:02.390Z,5
2023-12-14T10:22:02.388Z,5
2023-12-14T10:23:02.490Z,4
2023-12-14T10:24:02.953Z,4
2023-12-14T10:25:02.545Z,5
2023-12-14T10:26:02.018Z,5
2023-12-14T10:27:02.425Z,4
2023-12-14T10:28:02.315Z,4
2023-12-14T10:29:02.567Z,2
2023-12-14T10:30:01.968Z,2
2023-12-14T10:31:02.032Z,7
2023-12-14T10:32:03.016Z,7
2023-12-14T10:33:02.742Z,4
2023-12-14T10:34:02.299Z,4
2023-12-14T10:35:02.961Z,5
2023-12-14T10:36:02.043Z,5
2023-12-14T10:37:04.382Z,7
2023-12-14T10:38:02.190Z,7
2023-12-14T10:39:01.947Z,5
2023-12-14T10:40:02.603Z,5
2023-12-14T10:41:01.692Z,7
2023-12-14T10:42:08.265Z,7
2023-12-14T10:43:02.465Z,4
2023-12-14T10:44:19.028Z,4
2023-12-14T10:45:15.428Z,5
2023-12-14T10:46:02.829Z,5
2023-12-14T10:47:02.328Z,5
2023-12-14T10:48:05.323Z,5
2023-12-14T10:49:02.661Z,5
2023-12-14T10:50:02.364Z,5
2023-12-14T10:51:02.611Z,5
2023-12-14T10:52:02.386Z,5
2023-12-14T10:53:02.885Z,5
2023-12-14T10:54:02.236Z,5
2023-12-14T10:55:03.005Z,4
2023-12-14T10:56:02.453Z,4
2023-12-14T10:57:02.724Z,4
2023-12-14T10:58:02.471Z,4
2023-12-14T10:59:02.318Z,4
2023-12-14T11:00:02.137Z,4
2023-12-14T11:01:02.660Z,5
2023-12-14T11:02:02.048Z,5
2023-12-14T11:03:02.546Z,5
2023-12-14T11:05:02.023Z,5
2023-12-14T11:06:09.918Z,5
2023-12-14T11:07:02.667Z,7
2023-12-14T11:08:02.106Z,7
2023-12-14T11:09:02.751Z,5
2023-12-14T11:10:02.605Z,5
2023-12-14T11:11:02.518Z,5
2023-12-14T11:12:02.139Z,5
2023-12-14T11:13:02.000Z,4
2023-12-14T11:14:02.882Z,4
2023-12-14T11:15:02.186Z,5
2023-12-14T11:16:02.703Z,5
2023-12-14T11:17:02.197Z,4
2023-12-14T11:18:02.904Z,4
2023-12-14T11:19:02.366Z,7
2023-12-14T11:20:02.896Z,7
2023-12-14T11:21:02.868Z,7
2023-12-14T11:22:02.628Z,7
2023-12-14T11:23:02.673Z,2
2023-12-14T11:26:02.734Z,2
2023-12-14T11:27:02.063Z,2
2023-12-14T11:29:02.705Z,4
2023-12-14T11:30:02.844Z,4
2023-12-14T11:31:02.128Z,7
2023-12-14T11:32:02.169Z,7
2023-12-14T11:33:01.988Z,2
2023-12-14T11:34:03.019Z,2
2023-12-14T11:35:02.395Z,2
2023-12-14T11:36:02.335Z,2
2023-12-14T11:37:02.777Z,4
2023-12-14T11:38:02.156Z,4
2023-12-14T11:39:02.721Z,5
2023-12-14T11:40:02.158Z,5
2023-12-14T11:41:02.001Z,5
2023-12-14T11:42:02.291Z,5
2023-12-14T11:43:02.164Z,5
2023-12-14T11:44:02.286Z,5
2023-12-14T11:45:02.303Z,5
2023-12-14T11:46:02.556Z,5
2023-12-14T11:47:02.178Z,5
2023-12-14T11:48:02.493Z,5
2023-12-14T11:49:02.284Z,4
2023-12-14T11:50:02.430Z,4
2023-12-14T11:51:02.275Z,9
2023-12-14T11:52:02.228Z,9
2023-12-14T11:53:02.200Z,2
2023-12-14T11:54:02.268Z,2
2023-12-14T11:55:02.090Z,4
2023-12-14T11:56:01.968Z,4
2023-12-14T11:57:01.605Z,4
2023-12-14T11:58:02.146Z,4
2023-12-14T11:59:02.193Z,4
2023-12-14T12:01:02.208Z,5
2023-12-14T12:02:07.653Z,5
2023-12-14T12:03:02.413Z,5
2023-12-14T12:04:02.158Z,5
2023-12-14T12:06:02.626Z,7
2023-12-14T12:07:02.704Z,7
2023-12-14T12:08:02.533Z,7
2023-12-14T12:09:02.757Z,5
2023-12-14T12:10:02.499Z,5
2023-12-14T12:11:02.590Z,5
2023-12-14T12:12:02.670Z,5
2023-12-14T12:13:02.151Z,4
2023-12-14T12:14:02.471Z,4
2023-12-14T12:15:02.730Z,4
2023-12-14T12:16:02.231Z,4
2023-12-14T12:17:02.188Z,9
2023-12-14T12:18:02.745Z,9
2023-12-14T12:19:02.177Z,4
2023-12-14T12:20:02.081Z,4
2023-12-14T12:21:02.273Z,4
2023-12-14T12:22:02.994Z,4
2023-12-14T12:23:02.280Z,2
2023-12-14T12:24:07.196Z,2
2023-12-14T12:25:11.980Z,5
2023-12-14T12:26:02.012Z,5
2023-12-14T12:27:02.410Z,7
2023-12-14T12:28:02.097Z,7
2023-12-14T12:29:02.731Z,9
2023-12-14T12:30:02.599Z,9
2023-12-14T12:31:02.738Z,4
2023-12-14T12:32:02.858Z,4
2023-12-14T12:33:02.703Z,4
2023-12-14T12:34:02.511Z,4
2023-12-14T12:35:02.024Z,4
2023-12-14T12:36:02.068Z,4
2023-12-14T12:37:02.680Z,2
2023-12-14T12:38:02.621Z,2
2023-12-14T12:39:02.522Z,4
2023-12-14T12:40:03.091Z,4
2023-12-14T12:41:02.517Z,2
2023-12-14T12:42:02.832Z,2
2023-12-14T12:43:01.952Z,2
2023-12-14T12:44:02.418Z,5
2023-12-14T12:45:02.547Z,5
2023-12-14T12:46:02.818Z,5
2023-12-14T12:47:08.769Z,2
2023-12-14T12:48:02.519Z,2
2023-12-14T12:49:02.389Z,5
2023-12-14T12:50:02.020Z,5
2023-12-14T12:51:02.258Z,5
2023-12-14T12:52:02.703Z,5
2023-12-14T12:53:02.132Z,4
2023-12-14T12:54:10.133Z,4
2023-12-14T12:55:02.380Z,7
2023-12-14T12:56:02.474Z,7
2023-12-14T12:57:02.929Z,4
2023-12-14T12:58:02.832Z,4
2023-12-14T12:59:02.162Z,4
2023-12-14T13:00:02.726Z,4
2023-12-14T13:01:02.217Z,7
2023-12-14T13:02:02.536Z,7
2023-12-14T13:03:02.807Z,2
2023-12-14T13:04:02.284Z,2
2023-12-14T13:05:02.353Z,5
2023-12-14T13:06:02.865Z,5
2023-12-14T13:07:02.768Z,4
2023-12-14T13:08:02.041Z,4
2023-12-14T13:09:02.622Z,4
2023-12-14T13:10:06.016Z,4
2023-12-14T13:11:02.211Z,5
2023-12-14T13:12:02.345Z,5
2023-12-14T13:13:02.596Z,5
2023-12-14T13:14:02.539Z,4
2023-12-14T13:15:02.756Z,5
2023-12-14T13:16:02.883Z,5
2023-12-14T13:17:02.337Z,9
2023-12-14T13:18:02.392Z,9
2023-12-14T13:19:02.394Z,5
2023-12-14T13:20:02.004Z,5
2023-12-14T13:21:02.687Z,5
2023-12-14T13:22:02.786Z,5
2023-12-14T13:23:02.173Z,4
2023-12-14T13:24:02.622Z,4
2023-12-14T13:25:02.044Z,5
2023-12-14T13:26:02.277Z,5
2023-12-14T13:28:02.261Z,9
2023-12-14T13:29:02.335Z,9
2023-12-14T13:30:02.030Z,5
2023-12-14T13:31:02.384Z,5
2023-12-14T13:32:01.913Z,5
2023-12-14T13:33:02.185Z,2
2023-12-14T13:34:02.324Z,2
2023-12-14T13:35:02.752Z,5
2023-12-14T13:36:01.657Z,5
2023-12-14T13:37:02.491Z,2
2023-12-14T13:38:02.779Z,2
2023-12-14T13:39:02.930Z,2
2023-12-14T13:40:02.377Z,2
2023-12-14T13:41:02.612Z,5
2023-12-14T13:42:02.127Z,5
2023-12-14T13:43:07.247Z,4
2023-12-14T13:44:02.822Z,4
2023-12-14T13:45:02.418Z,2
2023-12-14T13:46:14.287Z,2
2023-12-14T13:47:02.593Z,5
2023-12-14T13:48:02.547Z,5
2023-12-14T13:49:02.382Z,4
2023-12-14T13:50:02.805Z,4
2023-12-14T13:51:02.211Z,4
2023-12-14T13:52:02.408Z,4
2023-12-14T13:53:02.479Z,7
2023-12-14T13:54:02.118Z,7
2023-12-14T13:55:02.657Z,7
2023-12-14T13:56:02.487Z,7
2023-12-14T13:57:02.742Z,7
2023-12-14T13:58:02.845Z,9
2023-12-14T13:59:02.532Z,5
2023-12-14T14:00:02.331Z,5
2023-12-14T14:01:02.926Z,7
2023-12-14T14:02:02.482Z,7
2023-12-14T14:03:02.741Z,4
2023-12-14T14:04:02.766Z,4
2023-12-14T14:05:02.684Z,4
2023-12-14T14:06:02.366Z,4
2023-12-14T14:07:02.677Z,5
2023-12-14T14:08:02.491Z,5
2023-12-14T14:09:02.833Z,5
2023-12-14T14:10:01.976Z,5
2023-12-14T14:11:02.321Z,5
2023-12-14T14:12:02.649Z,5
2023-12-14T14:13:02.289Z,5
2023-12-14T14:14:02.722Z,5
2023-12-14T14:15:02.221Z,5
2023-12-14T14:16:01.742Z,5
2023-12-14T14:17:02.748Z,5
2023-12-14T14:18:02.794Z,5
2023-12-14T14:19:02.147Z,5
2023-12-14T14:20:02.985Z,7
2023-12-14T14:21:02.587Z,7
2023-12-14T14:22:02.457Z,2
2023-12-14T14:23:02.409Z,4
2023-12-14T14:24:02.287Z,4
2023-12-14T14:25:02.784Z,11
2023-12-14T14:26:02.933Z,11
2023-12-14T14:27:02.413Z,17
2023-12-14T14:28:02.488Z,17
2023-12-14T14:29:02.348Z,9
2023-12-14T14:30:02.371Z,9
2023-12-14T14:31:02.099Z,9
2023-12-14T14:32:02.531Z,9
2023-12-14T14:33:02.184Z,13
2023-12-14T14:34:02.209Z,13
2023-12-14T14:35:02.429Z,11
2023-12-14T14:36:02.896Z,11
2023-12-14T14:37:02.362Z,4
2023-12-14T14:38:01.956Z,4
2023-12-14T14:39:02.931Z,2
2023-12-14T14:40:02.393Z,2
2023-12-14T14:41:02.024Z,2
2023-12-14T14:42:02.042Z,2
2023-12-14T14:43:02.071Z,4
2023-12-14T14:44:02.259Z,4
2023-12-14T14:45:02.854Z,2
2023-12-14T14:46:02.061Z,2
2023-12-14T14:47:02.246Z,2
2023-12-14T14:48:02.088Z,2
2023-12-14T14:49:02.657Z,2
2023-12-14T14:50:02.723Z,2
2023-12-14T14:51:02.579Z,4
2023-12-14T14:52:02.346Z,4
2023-12-14T14:53:02.665Z,4
2023-12-14T14:54:01.815Z,4
2023-12-14T14:56:02.867Z,4
2023-12-14T14:57:02.085Z,4
2023-12-14T14:58:02.688Z,4
2023-12-14T14:59:02.484Z,4
2023-12-14T15:00:02.419Z,4
2023-12-14T15:01:02.869Z,4
2023-12-14T15:02:02.716Z,4
2023-12-14T15:03:02.542Z,2
2023-12-14T15:05:02.215Z,4
2023-12-14T15:06:03.112Z,4
2023-12-14T15:07:02.900Z,4
2023-12-14T15:08:02.811Z,4
2023-12-14T15:09:02.631Z,4
2023-12-14T15:10:02.089Z,4
2023-12-14T15:11:02.499Z,2
2023-12-14T15:12:02.681Z,2
2023-12-14T15:13:02.550Z,2
2023-12-14T15:14:02.669Z,2
2023-12-14T15:15:02.417Z,4
2023-12-14T15:16:02.602Z,4
2023-12-14T15:18:02.545Z,4
2023-12-14T15:19:02.613Z,4
2023-12-14T15:20:03.149Z,4
2023-12-14T15:21:02.943Z,2
2023-12-14T15:22:02.267Z,2
2023-12-14T15:23:02.038Z,4
2023-12-14T15:24:02.534Z,4
2023-12-14T15:25:02.206Z,4
2023-12-14T15:26:02.108Z,4
2023-12-14T15:27:02.055Z,4
2023-12-14T15:28:02.294Z,4
2023-12-14T15:29:02.611Z,4
2023-12-14T15:30:02.833Z,4
2023-12-14T15:31:02.799Z,4
2023-12-14T15:32:02.450Z,4
2023-12-14T15:33:02.740Z,2
2023-12-14T15:34:03.100Z,2
2023-12-14T15:35:01.952Z,4
2023-12-14T15:36:02.716Z,4